Terminal Aerodrome Forecast
Issued by NWS Charleston, WV

Current Version | Previous Version | Text Only | Print | Product List | Glossary Off
Versions: 1 2 3 4 5 6 7 8 9 10 11 12 13 14 15 16 17 18 19 20 21 22 23 24 25

000
FTUS41 KRLX 262031 AAA
TAFHTS
TAF AMD
KHTS 262031Z 2621/2718 23008G15KT P6SM BKN060
     FM262200 24010G17KT 4SM SHRA VCTS BKN030CB BKN080
      TEMPO 2622/2623 3/4SM +TSRA BR OVC020CB
     FM270300 26006KT 3SM SHRA BR BKN025
     FM270700 VRB02KT 2SM SHRA BR BKN015
     FM271000 VRB03KT 4SM -DZ BR OVC008
     FM271400 VRB03KT 5SM -SHRA BR OVC012=

USA.gov is the U.S. government's official web portal to all federal, state and local government web resources and services.